Aérodrome :
LOGIN :

S'inscrire | Disclaimer

   EN    FR    IT 

 










Légende :    VFR   VFR Marginal   IFR   IFR Intensif   IFR Très Intensif
Visi : 
Plafond : 
>= 8 km
>= 3000ft
5 à 8 km
1000 à 3000 ft
1500m à 5 km
500 à 1000 ft
800 à 1500m
200 à 500 ft
< 800m
< 200 ft
Symboles :   Orages  Brouillard  Fortes neiges  Fortes précipitations  Vent > 20 kt
SIGMETs :   Divers  Orages  Givrage  Turbulence  Onde Orograph.  Cendres Volcan.






- Altitude de l'aérodrome : 55 ft
- Code IATA : DSA


EGCN - Robin Hood Doncaster Sheffield

DERNIER METAR :
  • 041650Z 25007KT 9999 BKN017 BKN024 04/03 Q0973

METARs EXPIRÉS :
  • 041620Z 25008KT 9999 FEW030 SCT035 03/03 Q0972 RERA
  • 041550Z 27009KT 9999 -SHRA FEW014 BKN036 03/03 Q0972
  • 041520Z 27010KT 9999 BKN007 BKN018 03/03 Q0972
  • 041450Z 27010KT 9999 FEW008 SCT016 BKN032 03/02 Q0971 RERA
  • 041420Z 28011KT 9999 SCT006 BKN009 03/02 Q0971
  • 041350Z 28013KT 9999 BKN009 03/02 Q0971

TAF AMD TAF EGCN
Valide du 04 à 14h jusqu'au 05 à 12h UTC


041451Z 0414/0512 30010KT 9999 SCT004 BKN016
BECMG 0414/0417 20008KT
TEMPO 0414/0503 8000 -RA BKN008
PROB30
TEMPO 0414/0503 RA
BECMG 0420/0423 14010KT
BECMG 0504/0507 07010KT
TEMPO 0510/0512 6000 RA BKN014



MET'MAP, la Météo Aéronautique d'un coup d'oeil ! - Copyright ORBIFLY Décembre 2007 - Disclaimer

ORBIFLY MET'MAP TEAM :

Programmation & Développement : Alexandra Zaïnal
Sur une idée originale de : Baudouin d'Aumeries
Assistance à la programmation : Marc-Olivier Méhu
Soutien technique & logistique : Manuel Goepfert

Contact : metmap@orbifly.com




SOURCES & CREDITS :

   NOAA